createdAt,value
2019-06-26T00:01:35.624Z,99.90
2019-06-26T00:04:05.984Z,99.90
2019-06-26T00:06:36.498Z,99.90
2019-06-26T00:09:08.682Z,99.90
2019-06-26T00:11:39.698Z,99.90
2019-06-26T00:14:09.982Z,99.90
2019-06-26T00:16:39.951Z,99.90
2019-06-26T00:19:09.918Z,99.90
2019-06-26T00:21:40.214Z,99.90
2019-06-26T00:24:10.403Z,99.90
2019-06-26T00:26:40.636Z,99.90
2019-06-26T00:29:10.732Z,99.90
2019-06-26T00:31:40.831Z,99.90
2019-06-26T00:34:11.193Z,99.90
2019-06-26T00:36:41.195Z,99.90
2019-06-26T00:39:11.437Z,99.90
2019-06-26T00:41:41.747Z,99.90
2019-06-26T00:44:11.999Z,99.90
2019-06-26T00:46:41.874Z,99.90
2019-06-26T00:49:11.978Z,99.90
2019-06-26T00:51:41.889Z,99.90
2019-06-26T00:54:11.979Z,99.90
2019-06-26T00:56:42.066Z,99.90
2019-06-26T00:59:12.064Z,99.90
2019-06-26T01:01:42.272Z,99.90
2019-06-26T01:04:20.095Z,99.90
2019-06-26T01:06:50.328Z,99.90
2019-06-26T01:09:20.432Z,99.90
2019-06-26T01:11:50.582Z,99.90
2019-06-26T01:14:20.936Z,99.90
2019-06-26T01:16:51.183Z,99.90
2019-06-26T01:19:21.244Z,99.90
2019-06-26T01:21:51.374Z,99.90
2019-06-26T01:24:21.397Z,99.90
2019-06-26T01:26:51.612Z,99.90
2019-06-26T01:29:21.635Z,99.90
2019-06-26T01:31:51.720Z,99.90
2019-06-26T01:34:21.662Z,99.90
2019-06-26T01:36:51.699Z,99.90
2019-06-26T01:39:23.448Z,99.90
2019-06-26T01:41:53.467Z,99.90
2019-06-26T01:44:23.578Z,99.90
2019-06-26T01:46:53.593Z,99.90
2019-06-26T01:49:23.928Z,99.90
2019-06-26T01:51:54.148Z,99.90
2019-06-26T01:54:24.493Z,99.90
2019-06-26T01:56:54.694Z,99.90
2019-06-26T01:59:25.110Z,99.90
2019-06-26T02:01:55.730Z,99.90
2019-06-26T02:04:26.181Z,99.90
2019-06-26T02:06:56.168Z,99.90
2019-06-26T02:09:26.415Z,99.90
2019-06-26T02:11:59.668Z,99.90
2019-06-26T02:14:31.597Z,99.90
2019-06-26T02:17:00.450Z,99.90
2019-06-26T02:19:30.476Z,99.90
2019-06-26T02:22:00.802Z,99.90
2019-06-26T02:24:31.132Z,99.90
2019-06-26T02:27:01.354Z,99.90
2019-06-26T02:29:31.696Z,99.90
2019-06-26T02:32:01.702Z,99.90
2019-06-26T02:34:31.940Z,99.90
2019-06-26T02:37:01.977Z,99.90
2019-06-26T02:39:31.957Z,99.90
2019-06-26T02:42:02.183Z,99.90
2019-06-26T02:44:51.464Z,99.90
2019-06-26T02:47:18.711Z,99.90
2019-06-26T02:49:35.920Z,99.90
2019-06-26T02:52:06.207Z,99.90
2019-06-26T02:54:36.231Z,99.90
2019-06-26T02:57:06.589Z,99.90
2019-06-26T02:59:36.733Z,99.90
2019-06-26T03:02:06.839Z,99.90
2019-06-26T03:04:36.921Z,99.90
2019-06-26T03:07:06.896Z,99.90
2019-06-26T03:09:37.066Z,99.90
2019-06-26T03:12:07.327Z,99.90
2019-06-26T03:14:37.632Z,99.90
2019-06-26T03:17:07.844Z,99.90
2019-06-26T03:19:38.134Z,99.90
2019-06-26T03:22:08.287Z,99.90
2019-06-26T03:24:38.432Z,99.90
2019-06-26T03:27:09.269Z,99.90
2019-06-26T03:29:40.894Z,99.90
2019-06-26T03:32:11.172Z,99.90
2019-06-26T03:34:41.370Z,99.90
2019-06-26T03:37:11.594Z,99.90
2019-06-26T03:39:41.611Z,99.90
2019-06-26T03:42:11.809Z,99.90
2019-06-26T03:44:41.820Z,99.90
2019-06-26T03:47:12.799Z,99.90
2019-06-26T03:49:42.810Z,99.90
2019-06-26T03:52:12.935Z,99.90
2019-06-26T03:54:43.263Z,99.90
2019-06-26T03:57:13.351Z,99.90
2019-06-26T03:59:43.374Z,99.90
2019-06-26T04:02:13.423Z,99.90
2019-06-26T04:04:43.433Z,99.90
2019-06-26T04:07:13.621Z,99.90
2019-06-26T04:09:45.475Z,99.90
2019-06-26T04:12:15.416Z,99.90
2019-06-26T04:14:45.425Z,99.90
2019-06-26T04:17:15.362Z,99.90
2019-06-26T04:19:45.664Z,99.90
2019-06-26T04:22:15.685Z,99.90
2019-06-26T04:24:45.838Z,99.90
2019-06-26T04:27:15.943Z,99.90
2019-06-26T04:29:46.561Z,99.90
2019-06-26T04:32:16.793Z,99.90
2019-06-26T04:34:46.674Z,99.90
2019-06-26T04:37:16.725Z,99.90
2019-06-26T04:39:46.958Z,99.90
2019-06-26T04:42:18.663Z,99.90
2019-06-26T04:44:48.937Z,99.90
2019-06-26T04:47:18.924Z,99.90
2019-06-26T04:49:49.183Z,99.90
2019-06-26T04:52:19.195Z,99.90
2019-06-26T04:54:49.294Z,99.90
2019-06-26T04:57:19.518Z,99.90
2019-06-26T04:59:49.841Z,99.90
2019-06-26T05:02:20.118Z,99.90
2019-06-26T05:04:50.175Z,99.90
2019-06-26T05:07:20.379Z,99.90
2019-06-26T05:09:50.330Z,99.90
2019-06-26T05:12:20.418Z,99.90
2019-06-26T05:14:50.499Z,99.90
2019-06-26T05:17:20.603Z,99.90
2019-06-26T05:19:50.700Z,99.90
2019-06-26T05:22:20.701Z,99.90
2019-06-26T05:24:50.761Z,99.90
2019-06-26T05:27:20.878Z,99.90
2019-06-26T05:29:54.313Z,99.90
2019-06-26T05:32:22.972Z,99.90
2019-06-26T05:34:53.284Z,99.90
2019-06-26T05:37:23.611Z,99.90
2019-06-26T05:39:54.779Z,99.90
2019-06-26T05:42:25.093Z,99.90
2019-06-26T05:44:55.040Z,99.90
2019-06-26T05:47:25.287Z,99.90
2019-06-26T05:49:55.545Z,99.90
2019-06-26T05:52:25.774Z,99.90
2019-06-26T05:54:55.764Z,99.90
2019-06-26T05:57:26.095Z,99.90
2019-06-26T05:59:57.174Z,99.90
2019-06-26T06:02:27.382Z,99.90
2019-06-26T06:04:57.561Z,99.90
2019-06-26T06:07:27.719Z,99.90
2019-06-26T06:09:57.953Z,99.90
2019-06-26T06:12:28.144Z,99.90
2019-06-26T06:14:58.287Z,99.90
2019-06-26T06:17:28.710Z,99.90
2019-06-26T06:19:59.380Z,99.90
2019-06-26T06:22:29.618Z,99.90
2019-06-26T06:24:59.811Z,99.90
2019-06-26T06:27:29.907Z,99.90
2019-06-26T06:30:00.031Z,99.90
2019-06-26T06:32:30.243Z,99.90
2019-06-26T06:35:00.475Z,99.90
2019-06-26T06:37:30.946Z,99.90
2019-06-26T06:40:01.191Z,99.90
2019-06-26T06:42:31.098Z,99.90
2019-06-26T06:45:01.179Z,99.90
2019-06-26T06:47:31.286Z,99.90
2019-06-26T06:50:02.614Z,99.90
2019-06-26T06:52:32.835Z,99.90
2019-06-26T06:55:03.292Z,99.90
2019-06-26T06:57:33.316Z,99.90
2019-06-26T07:00:03.772Z,99.90
2019-06-26T07:02:33.773Z,99.90
2019-06-26T07:05:05.868Z,99.90
2019-06-26T07:07:35.971Z,99.90
2019-06-26T07:10:08.151Z,99.90
2019-06-26T07:12:38.552Z,99.90
2019-06-26T07:15:09.860Z,99.90
2019-06-26T07:17:39.978Z,99.90
2019-06-26T07:20:10.329Z,99.90
2019-06-26T07:22:40.533Z,99.90
2019-06-26T07:25:10.634Z,99.90
2019-06-26T07:27:40.928Z,99.90
2019-06-26T07:30:11.362Z,99.90
2019-06-26T07:32:41.481Z,99.90
2019-06-26T07:35:11.768Z,99.90
2019-06-26T07:37:41.842Z,99.90
2019-06-26T07:40:12.413Z,99.90
2019-06-26T07:42:44.228Z,99.90
2019-06-26T07:45:14.986Z,99.30
2019-06-26T07:47:45.130Z,98.70
2019-06-26T07:50:15.467Z,98.70
2019-06-26T07:52:45.667Z,96.50
2019-06-26T07:55:15.934Z,95.60
2019-06-26T07:57:46.301Z,95.00
2019-06-26T08:00:16.747Z,93.90
2019-06-26T08:02:46.933Z,93.70
2019-06-26T08:05:18.049Z,93.80
2019-06-26T08:07:48.314Z,93.00
2019-06-26T08:10:19.042Z,92.30
2019-06-26T08:12:49.366Z,91.30
2019-06-26T08:15:20.824Z,92.90
2019-06-26T08:18:00.674Z,90.80
2019-06-26T08:20:22.990Z,90.80
2019-06-26T08:22:53.135Z,92.30
2019-06-26T08:25:23.391Z,90.30
2019-06-26T08:27:53.598Z,92.50
2019-06-26T08:30:24.078Z,91.00
2019-06-26T08:32:54.551Z,91.90
2019-06-26T08:35:24.843Z,90.00
2019-06-26T08:38:08.845Z,89.50
2019-06-26T08:40:28.353Z,91.80
2019-06-26T08:42:58.341Z,87.90
2019-06-26T08:45:28.460Z,91.00
2019-06-26T08:47:58.473Z,90.00
2019-06-26T08:50:28.569Z,91.20
2019-06-26T08:52:58.931Z,91.10
2019-06-26T08:55:29.010Z,91.50
2019-06-26T08:57:59.009Z,91.20
2019-06-26T09:00:29.232Z,91.60
2019-06-26T09:02:59.437Z,92.70
2019-06-26T09:05:43.598Z,93.10
2019-06-26T09:08:04.586Z,94.00
2019-06-26T09:10:34.975Z,93.90
2019-06-26T09:13:05.093Z,93.10
2019-06-26T09:15:35.343Z,92.20
2019-06-26T09:18:05.480Z,94.10
2019-06-26T09:20:40.236Z,94.00
2019-06-26T09:23:10.263Z,94.10
2019-06-26T09:25:40.321Z,94.10
2019-06-26T09:28:10.404Z,94.10
2019-06-26T09:30:40.597Z,92.60
2019-06-26T09:33:10.660Z,91.00
2019-06-26T09:35:40.917Z,91.50
2019-06-26T09:38:11.180Z,90.70
2019-06-26T09:40:41.327Z,91.70
2019-06-26T09:43:11.542Z,90.70
2019-06-26T09:45:41.601Z,91.90
2019-06-26T09:48:11.713Z,95.10
2019-06-26T09:50:41.730Z,94.10
2019-06-26T09:53:11.947Z,94.00
2019-06-26T09:55:42.159Z,94.00
2019-06-26T09:58:13.409Z,94.10
2019-06-26T10:00:43.962Z,94.10
2019-06-26T10:03:14.180Z,91.90
2019-06-26T10:05:44.294Z,91.60
2019-06-26T10:08:14.415Z,90.90
2019-06-26T10:10:44.411Z,90.70
2019-06-26T10:13:14.928Z,85.50
2019-06-26T10:15:45.147Z,86.50
2019-06-26T10:18:17.722Z,83.60
2019-06-26T10:20:48.114Z,80.60
2019-06-26T10:23:18.310Z,79.80
2019-06-26T10:25:48.085Z,79.40
2019-06-26T10:28:18.151Z,76.70
2019-06-26T10:30:48.141Z,75.00
2019-06-26T10:33:18.372Z,78.90
2019-06-26T10:35:48.355Z,80.70
2019-06-26T10:38:18.838Z,81.10
2019-06-26T10:40:49.065Z,77.50
2019-06-26T10:43:19.446Z,75.70
2019-06-26T10:45:49.718Z,74.50
2019-06-26T10:48:19.702Z,72.20
2019-06-26T10:50:57.128Z,72.40
2019-06-26T10:53:21.584Z,74.50
2019-06-26T10:55:51.714Z,77.70
2019-06-26T10:58:22.191Z,75.80
2019-06-26T11:00:52.375Z,73.10
2019-06-26T11:03:22.494Z,75.70
2019-06-26T11:05:52.611Z,77.40
2019-06-26T11:08:22.911Z,74.60
2019-06-26T11:10:53.057Z,77.30
2019-06-26T11:13:23.284Z,76.80
2019-06-26T11:15:53.231Z,78.20
2019-06-26T11:18:23.212Z,75.40
2019-06-26T11:20:53.308Z,73.90
2019-06-26T11:23:23.375Z,73.50
2019-06-26T11:25:53.553Z,72.00
2019-06-26T11:28:23.908Z,71.00
2019-06-26T11:30:54.024Z,71.10
2019-06-26T11:33:24.110Z,72.40
2019-06-26T11:35:54.437Z,75.50
2019-06-26T11:38:24.587Z,75.40
2019-06-26T11:40:54.487Z,79.30
2019-06-26T11:43:24.672Z,81.20
2019-06-26T11:45:54.853Z,80.10
2019-06-26T11:48:25.074Z,80.00
2019-06-26T11:50:55.096Z,79.90
2019-06-26T11:53:25.124Z,84.70
2019-06-26T11:55:55.571Z,80.20
2019-06-26T11:58:25.657Z,83.80
2019-06-26T12:00:55.533Z,83.40
2019-06-26T12:03:25.556Z,87.40
2019-06-26T12:06:11.959Z,87.70
2019-06-26T12:08:28.816Z,88.70
2019-06-26T12:10:59.229Z,86.10
2019-06-26T12:13:29.306Z,84.80
2019-06-26T12:15:59.509Z,86.00
2019-06-26T12:18:29.510Z,81.70
2019-06-26T12:20:59.482Z,84.40
2019-06-26T12:23:29.432Z,81.90
2019-06-26T12:25:59.554Z,84.70
2019-06-26T12:28:29.575Z,85.60
2019-06-26T12:30:59.605Z,87.20
2019-06-26T12:33:29.985Z,84.50
2019-06-26T12:36:00.351Z,83.50
2019-06-26T12:38:30.464Z,84.20
2019-06-26T12:41:00.679Z,83.50
2019-06-26T12:43:30.786Z,83.50
2019-06-26T12:46:01.193Z,81.80
2019-06-26T12:48:31.858Z,84.10
2019-06-26T12:51:01.872Z,82.40
2019-06-26T12:53:32.213Z,85.90
2019-06-26T12:56:02.423Z,86.90
2019-06-26T12:58:32.766Z,85.90
2019-06-26T13:01:02.685Z,84.20
2019-06-26T13:03:32.666Z,86.20
2019-06-26T13:06:02.732Z,90.00
2019-06-26T13:08:33.049Z,90.20
2019-06-26T13:11:03.214Z,82.60
2019-06-26T13:13:33.498Z,87.60
2019-06-26T13:16:03.609Z,89.20
2019-06-26T13:18:33.593Z,84.10
2019-06-26T13:21:05.287Z,85.20
2019-06-26T13:23:35.056Z,85.70
2019-06-26T13:26:05.057Z,81.60
2019-06-26T13:28:35.120Z,81.70
2019-06-26T13:31:05.052Z,81.40
2019-06-26T13:33:35.064Z,85.80
2019-06-26T13:36:05.077Z,82.30
2019-06-26T13:38:35.329Z,82.90
2019-06-26T13:41:05.513Z,78.30
2019-06-26T13:43:35.702Z,78.20
2019-06-26T13:46:06.635Z,81.40
2019-06-26T13:48:36.694Z,83.90
2019-06-26T13:51:09.620Z,85.00
2019-06-26T13:53:38.675Z,83.40
2019-06-26T13:56:08.904Z,84.20
2019-06-26T13:58:39.095Z,86.80
2019-06-26T14:01:09.261Z,89.30
2019-06-26T14:03:39.363Z,90.50
2019-06-26T14:06:09.512Z,90.30
2019-06-26T14:08:39.677Z,91.20
2019-06-26T14:11:09.842Z,90.00
2019-06-26T14:13:41.954Z,92.40
2019-06-26T14:16:11.985Z,92.40
2019-06-26T14:18:42.441Z,92.40
2019-06-26T14:21:24.997Z,92.30
2019-06-26T14:23:44.632Z,92.30
2019-06-26T14:26:14.741Z,92.40
2019-06-26T14:28:45.386Z,92.40
2019-06-26T14:31:15.718Z,92.40
2019-06-26T14:33:45.833Z,94.60
2019-06-26T14:36:16.345Z,92.40
2019-06-26T14:38:46.777Z,92.30
2019-06-26T14:41:17.326Z,95.00
2019-06-26T14:43:48.363Z,94.70
2019-06-26T14:46:18.884Z,94.90
2019-06-26T14:48:53.129Z,93.40
2019-06-26T14:51:23.651Z,92.90
2019-06-26T14:53:54.302Z,94.40
2019-06-26T14:56:24.496Z,94.10
2019-06-26T14:58:54.531Z,95.70
2019-06-26T15:01:24.601Z,97.00
2019-06-26T15:03:54.572Z,96.20
2019-06-26T15:06:25.274Z,97.00
2019-06-26T15:08:55.619Z,95.20
2019-06-26T15:11:26.134Z,92.00
2019-06-26T15:13:56.492Z,91.90
2019-06-26T15:16:30.176Z,95.70
2019-06-26T15:18:58.545Z,97.10
2019-06-26T15:21:28.808Z,96.60
2019-06-26T15:23:58.991Z,96.90
2019-06-26T15:26:29.166Z,97.80
2019-06-26T15:28:59.345Z,96.60
2019-06-26T15:31:29.685Z,96.40
2019-06-26T15:33:59.748Z,98.60
2019-06-26T15:36:30.060Z,99.90
2019-06-26T15:39:00.240Z,99.90
2019-06-26T15:41:30.446Z,99.90
2019-06-26T15:44:00.534Z,99.90
2019-06-26T15:46:30.813Z,99.90
2019-06-26T15:49:00.842Z,99.90
2019-06-26T15:51:30.821Z,99.90
2019-06-26T15:54:00.795Z,99.90
2019-06-26T15:56:31.054Z,99.90
2019-06-26T15:59:01.339Z,99.90
2019-06-26T16:01:31.568Z,99.90
2019-06-26T16:04:01.850Z,99.90
2019-06-26T16:06:31.838Z,99.90
2019-06-26T16:09:01.871Z,99.90
2019-06-26T16:11:33.239Z,99.90
2019-06-26T16:14:03.493Z,99.90
2019-06-26T16:16:35.272Z,99.90
2019-06-26T16:19:07.109Z,99.90
2019-06-26T16:21:37.338Z,99.90
2019-06-26T16:24:07.682Z,99.90
2019-06-26T16:26:37.806Z,99.90
2019-06-26T16:29:07.857Z,99.90
2019-06-26T16:31:38.378Z,99.90
2019-06-26T16:34:08.544Z,99.90
2019-06-26T16:36:38.674Z,99.90
2019-06-26T16:39:09.245Z,99.90
2019-06-26T16:41:39.300Z,99.90
2019-06-26T16:44:09.260Z,99.90
2019-06-26T16:46:39.511Z,99.90
2019-06-26T16:49:09.525Z,99.90
2019-06-26T16:51:39.412Z,99.90
2019-06-26T16:54:10.563Z,99.90
2019-06-26T16:56:40.623Z,99.90
2019-06-26T16:59:10.838Z,99.90
2019-06-26T17:01:41.861Z,99.90
2019-06-26T17:04:12.288Z,99.90
2019-06-26T17:06:42.547Z,99.90
2019-06-26T17:09:12.859Z,99.90
2019-06-26T17:11:43.088Z,99.90
2019-06-26T17:14:13.481Z,99.90
2019-06-26T17:16:43.807Z,99.90
2019-06-26T17:19:13.914Z,99.90
2019-06-26T17:21:44.197Z,99.90
2019-06-26T17:24:14.277Z,99.90
2019-06-26T17:26:44.534Z,99.90
2019-06-26T17:29:15.074Z,99.90
2019-06-26T17:31:45.102Z,99.90
2019-06-26T17:34:14.957Z,99.90
2019-06-26T17:36:45.113Z,99.90
2019-06-26T17:39:15.356Z,99.90
2019-06-26T17:41:45.411Z,99.90
2019-06-26T17:44:15.428Z,99.90
2019-06-26T17:46:45.430Z,99.90
2019-06-26T17:49:15.623Z,99.90
2019-06-26T17:51:45.951Z,99.90
2019-06-26T17:54:16.049Z,99.90
2019-06-26T17:56:46.225Z,99.90
2019-06-26T17:59:16.176Z,99.90
2019-06-26T18:01:46.184Z,99.90
2019-06-26T18:04:16.298Z,99.90
2019-06-26T18:06:46.550Z,99.90
2019-06-26T18:09:16.429Z,99.90
2019-06-26T18:11:46.494Z,99.90
2019-06-26T18:14:16.510Z,99.90
2019-06-26T18:16:46.699Z,99.90
2019-06-26T18:19:16.944Z,99.90
2019-06-26T18:21:47.176Z,99.90
2019-06-26T18:24:17.302Z,99.90
2019-06-26T18:26:47.520Z,99.90
2019-06-26T18:29:17.847Z,99.90
2019-06-26T18:31:47.734Z,99.90
2019-06-26T18:34:17.832Z,99.90
2019-06-26T18:36:48.099Z,99.90
2019-06-26T18:39:18.203Z,99.90
2019-06-26T18:41:48.342Z,99.90
2019-06-26T18:44:18.880Z,99.90
2019-06-26T18:46:49.490Z,99.90
2019-06-26T18:49:19.637Z,99.90
2019-06-26T18:51:49.742Z,99.90
2019-06-26T18:54:19.746Z,99.90
2019-06-26T18:56:49.766Z,99.90
2019-06-26T18:59:19.939Z,99.90
2019-06-26T19:01:50.111Z,99.90
2019-06-26T19:04:20.357Z,99.90
2019-06-26T19:06:50.354Z,99.90
2019-06-26T19:09:20.789Z,99.90
2019-06-26T19:11:51.039Z,99.90
2019-06-26T19:14:21.042Z,99.90
2019-06-26T19:16:51.154Z,99.90
2019-06-26T19:19:21.303Z,99.90
2019-06-26T19:21:51.446Z,99.90
2019-06-26T19:24:21.824Z,99.90
2019-06-26T19:26:52.065Z,99.90
2019-06-26T19:29:22.265Z,99.90
2019-06-26T19:31:54.175Z,99.90
2019-06-26T19:34:24.540Z,99.90
2019-06-26T19:36:54.689Z,99.90
2019-06-26T19:39:24.931Z,99.90
2019-06-26T19:41:55.122Z,99.90
2019-06-26T19:44:25.381Z,99.90
2019-06-26T19:46:55.350Z,99.90
2019-06-26T19:49:25.589Z,99.90
2019-06-26T19:51:55.608Z,99.90
2019-06-26T19:54:27.699Z,99.90
2019-06-26T19:56:57.512Z,99.90
2019-06-26T19:59:27.503Z,99.90
2019-06-26T20:01:57.722Z,99.90
2019-06-26T20:04:27.844Z,99.90
2019-06-26T20:06:57.953Z,99.90
2019-06-26T20:09:28.301Z,99.90
2019-06-26T20:11:58.525Z,99.90
2019-06-26T20:14:28.621Z,99.90
2019-06-26T20:16:58.977Z,99.90
2019-06-26T20:19:29.280Z,99.90
2019-06-26T20:22:01.055Z,99.90
2019-06-26T20:24:43.332Z,99.90
2019-06-26T20:27:03.023Z,99.90
2019-06-26T20:29:33.449Z,99.90
2019-06-26T20:32:03.716Z,99.90
2019-06-26T20:34:34.552Z,99.90
2019-06-26T20:37:04.810Z,99.90
2019-06-26T20:39:34.856Z,99.90
2019-06-26T20:42:04.974Z,99.90
2019-06-26T20:44:35.353Z,99.90
2019-06-26T20:47:05.737Z,99.90
2019-06-26T20:49:49.093Z,99.90
2019-06-26T20:52:07.711Z,99.90
2019-06-26T20:54:37.725Z,99.90
2019-06-26T20:57:07.624Z,99.90
2019-06-26T20:59:37.666Z,99.90
2019-06-26T21:02:07.897Z,99.90
2019-06-26T21:04:37.947Z,99.90
2019-06-26T21:07:08.098Z,99.90
2019-06-26T21:09:38.653Z,99.90
2019-06-26T21:12:08.991Z,99.90
2019-06-26T21:14:39.010Z,99.90
2019-06-26T21:17:09.199Z,99.90
2019-06-26T21:19:39.336Z,99.90
2019-06-26T21:22:09.542Z,99.90
2019-06-26T21:24:39.780Z,99.90
2019-06-26T21:27:09.947Z,99.90
2019-06-26T21:29:40.038Z,99.90
2019-06-26T21:32:10.033Z,99.90
2019-06-26T21:34:40.039Z,99.90
2019-06-26T21:37:10.307Z,99.90
2019-06-26T21:39:40.340Z,99.90
2019-06-26T21:42:10.447Z,99.90
2019-06-26T21:44:40.359Z,99.90
2019-06-26T21:47:10.602Z,99.90
2019-06-26T21:49:40.594Z,99.90
2019-06-26T21:52:11.071Z,99.90
2019-06-26T21:54:43.304Z,99.90
2019-06-26T21:57:13.194Z,99.90
2019-06-26T21:59:43.146Z,99.90
2019-06-26T22:02:13.244Z,99.90
2019-06-26T22:04:43.452Z,99.90
2019-06-26T22:07:13.571Z,99.90
2019-06-26T22:09:44.014Z,99.90
2019-06-26T22:12:18.177Z,99.90
2019-06-26T22:14:48.539Z,99.90
2019-06-26T22:17:18.767Z,99.90
2019-06-26T22:19:48.886Z,99.90
2019-06-26T22:22:19.229Z,99.90
2019-06-26T22:24:49.567Z,99.90
2019-06-26T22:27:19.663Z,99.90
2019-06-26T22:29:49.877Z,99.90
2019-06-26T22:32:20.006Z,99.90
2019-06-26T22:34:50.294Z,99.90
2019-06-26T22:37:20.826Z,99.90
2019-06-26T22:39:51.402Z,99.90
2019-06-26T22:42:21.518Z,99.90
2019-06-26T22:44:51.745Z,99.90
2019-06-26T22:47:21.721Z,99.90
2019-06-26T22:49:52.076Z,99.90
2019-06-26T22:52:22.204Z,99.90
2019-06-26T22:54:52.749Z,99.90
2019-06-26T22:57:22.755Z,99.90
2019-06-26T22:59:52.938Z,99.90
2019-06-26T23:02:24.194Z,99.90
2019-06-26T23:04:54.442Z,99.90
2019-06-26T23:07:24.681Z,99.90
2019-06-26T23:09:54.790Z,99.90
2019-06-26T23:12:25.078Z,99.90
2019-06-26T23:14:55.321Z,99.90
2019-06-26T23:17:25.611Z,99.90
2019-06-26T23:19:55.770Z,99.90
2019-06-26T23:22:26.074Z,99.90
2019-06-26T23:24:57.034Z,99.90
2019-06-26T23:27:27.155Z,99.90
2019-06-26T23:29:57.400Z,99.90
2019-06-26T23:32:27.634Z,99.90
2019-06-26T23:34:58.689Z,99.90
2019-06-26T23:37:29.283Z,99.90
2019-06-26T23:39:59.919Z,99.90
2019-06-26T23:42:30.342Z,99.90
2019-06-26T23:45:00.551Z,99.90
2019-06-26T23:47:31.007Z,99.90
2019-06-26T23:50:01.304Z,99.90
2019-06-26T23:52:31.805Z,99.90
2019-06-26T23:55:02.107Z,99.90
2019-06-26T23:57:32.605Z,99.90
